Renton, WA (98055)

1:42 AM PST on February 22, 2017 (GMT -0800)
Rolling Hills Renton Wa | | Change Station

Elev 450 ft 47.46 °N, 122.19 °W | Updated 1 minute ago

Overcast
Overcast
37.2 °F
Feels Like 37 °F
N
1.1
Wind Variable Wind from East

Today
High -- | Low -- °F
--% Chance of Precip.
Yesterday
High -- | Low -- °F
Precip. -- in
Pressure 30.19 in
Visibility 10.0 miles
Clouds Overcast 1800 ft
Windchill 37 °F
Dew Point 37 °F
Humidity 99%
Rainfall 0.00 in
Snow Depth Not available.
7:01 AM 5:43 PM
Waning Crescent, 18% visible
METAR KRNT 220853Z AUTO 11003KT 10SM OVC018 04/04 A3017 RMK AO2 SLP223 60003 T00440044 51014 $
Pressure 30.19 in
Visibility 10.0 miles
Clouds Overcast 1800 ft
Windchill 37 °F
Dew Point 37 °F
Humidity 99%
Rainfall 0.00 in
Snow Depth Not available.
7:01 AM 5:43 PM
Waning Crescent, 18% visible
METAR KRNT 220853Z AUTO 11003KT 10SM OVC018 04/04 A3017 RMK AO2 SLP223 60003 T00440044 51014 $

Get Your Daily Forecast Email!

Thanks for signing up!

Be on the lookout for a verification email in your inbox.

You'll start receiving the daily forecast at 8 AM.

×

10-Day Weather Forecast

Almanac

Astronomy

Feb. 22, 2017 Rise Set
Actual Time
Civil Twilight
Nautical Twilight
Astronomical Twilight
Moon
Length of Visible Light
Length of Day
Tomorrow will be .
, % of the Moon is Illuminated

Today's Extremes

State Highs State Lows

Community

WunderPhotos

Upload Photos

1,962,540 photos uploaded!

WunderBlog® & News

Nearby

Air Quality

  Air Quality AQ Index Pollutant
Not available.

Snow Depth

Station Depth Elevation

Earthquake Activity

City Distance Mag. Time & Date
Minimum magnitude displayed is 2.5.

Coastal Water Temperatures

Place Temperature

Stations

Nearby Weather Stations

Station Location Temp. Windchill Dew Point Humidity Wind Precip. Elev Updated Type
                   

Watches & Warnings

There are currently no watches in effect.